sensor_id;sensor_type;location;lat;lon;timestamp;P1;durP1;ratioP1;P2;durP2;ratioP2
49900;SDS011;35789;48.414;12.768;2022-09-14T00:00:00;9.0;;;5.2;;
49900;SDS011;35789;48.414;12.768;2022-09-14T00:05:00;9.0;;;5.2;;
49900;SDS011;35789;48.414;12.768;2022-09-14T00:10:00;9.0;;;5.2;;
49900;SDS011;35789;48.414;12.768;2022-09-14T00:15:00;9.0;;;5.2;;
49900;SDS011;35789;48.414;12.768;2022-09-14T00:20:00;9.0;;;5.2;;
49900;SDS011;35789;48.414;12.768;2022-09-14T00:25:00;9.0;;;5.2;;
49900;SDS011;35789;48.414;12.768;2022-09-14T00:30:00;9.4;;;5.9;;
49900;SDS011;35789;48.414;12.768;2022-09-14T00:35:00;9.4;;;5.9;;
49900;SDS011;35789;48.414;12.768;2022-09-14T00:40:00;9.4;;;5.9;;
49900;SDS011;35789;48.414;12.768;2022-09-14T00:45:05;9.4;;;5.9;;
49900;SDS011;35789;48.414;12.768;2022-09-14T00:50:02;9.4;;;5.9;;
49900;SDS011;35789;48.414;12.768;2022-09-14T00:55:02;9.4;;;5.9;;
49900;SDS011;35789;48.414;12.768;2022-09-14T01:00:00;9.4;;;6.0;;
49900;SDS011;35789;48.414;12.768;2022-09-14T01:05:00;9.4;;;6.0;;
49900;SDS011;35789;48.414;12.768;2022-09-14T01:10:08;9.4;;;6.0;;
49900;SDS011;35789;48.414;12.768;2022-09-14T01:15:05;9.4;;;6.0;;
49900;SDS011;35789;48.414;12.768;2022-09-14T01:20:09;9.4;;;6.0;;
49900;SDS011;35789;48.414;12.768;2022-09-14T01:25:06;9.4;;;6.0;;
49900;SDS011;35789;48.414;12.768;2022-09-14T01:30:05;8.1;;;6.2;;
49900;SDS011;35789;48.414;12.768;2022-09-14T01:35:03;8.1;;;6.2;;
49900;SDS011;35789;48.414;12.768;2022-09-14T01:40:04;8.1;;;6.2;;
49900;SDS011;35789;48.414;12.768;2022-09-14T01:45:02;8.1;;;6.2;;
49900;SDS011;35789;48.414;12.768;2022-09-14T01:50:05;8.1;;;6.2;;
49900;SDS011;35789;48.414;12.768;2022-09-14T01:55:04;8.1;;;6.2;;
49900;SDS011;35789;48.414;12.768;2022-09-14T02:00:05;11.2;;;6.9;;
49900;SDS011;35789;48.414;12.768;2022-09-14T02:05:06;11.2;;;6.9;;
49900;SDS011;35789;48.414;12.768;2022-09-14T02:10:00;11.2;;;6.9;;
49900;SDS011;35789;48.414;12.768;2022-09-14T02:15:00;11.2;;;6.9;;
49900;SDS011;35789;48.414;12.768;2022-09-14T02:20:03;11.2;;;6.9;;
49900;SDS011;35789;48.414;12.768;2022-09-14T02:25:00;11.2;;;6.9;;
49900;SDS011;35789;48.414;12.768;2022-09-14T02:30:00;12.1;;;7.6;;
49900;SDS011;35789;48.414;12.768;2022-09-14T02:35:06;12.1;;;7.6;;
49900;SDS011;35789;48.414;12.768;2022-09-14T02:40:07;12.1;;;7.6;;
49900;SDS011;35789;48.414;12.768;2022-09-14T02:45:05;12.1;;;7.6;;
49900;SDS011;35789;48.414;12.768;2022-09-14T02:50:06;12.1;;;7.6;;
49900;SDS011;35789;48.414;12.768;2022-09-14T02:55:06;12.1;;;7.6;;
49900;SDS011;35789;48.414;12.768;2022-09-14T03:00:00;14.0;;;7.4;;
49900;SDS011;35789;48.414;12.768;2022-09-14T03:05:00;14.0;;;7.4;;
49900;SDS011;35789;48.414;12.768;2022-09-14T03:10:00;14.0;;;7.4;;
49900;SDS011;35789;48.414;12.768;2022-09-14T03:15:00;14.0;;;7.4;;
49900;SDS011;35789;48.414;12.768;2022-09-14T03:20:00;14.0;;;7.4;;
49900;SDS011;35789;48.414;12.768;2022-09-14T03:25:00;14.0;;;7.4;;
49900;SDS011;35789;48.414;12.768;2022-09-14T03:30:00;9.8;;;7.1;;
49900;SDS011;35789;48.414;12.768;2022-09-14T03:35:00;9.8;;;7.1;;
49900;SDS011;35789;48.414;12.768;2022-09-14T03:40:00;9.8;;;7.1;;
49900;SDS011;35789;48.414;12.768;2022-09-14T03:45:00;9.8;;;7.1;;
49900;SDS011;35789;48.414;12.768;2022-09-14T03:50:00;9.8;;;7.1;;
49900;SDS011;35789;48.414;12.768;2022-09-14T03:55:00;9.8;;;7.1;;
49900;SDS011;35789;48.414;12.768;2022-09-14T04:00:00;10.0;;;7.4;;
49900;SDS011;35789;48.414;12.768;2022-09-14T04:05:00;10.0;;;7.4;;
49900;SDS011;35789;48.414;12.768;2022-09-14T04:10:00;10.0;;;7.4;;
49900;SDS011;35789;48.414;12.768;2022-09-14T04:15:00;10.0;;;7.4;;
49900;SDS011;35789;48.414;12.768;2022-09-14T04:20:00;10.0;;;7.4;;
49900;SDS011;35789;48.414;12.768;2022-09-14T04:25:00;10.0;;;7.4;;
49900;SDS011;35789;48.414;12.768;2022-09-14T04:30:00;11.0;;;7.9;;
49900;SDS011;35789;48.414;12.768;2022-09-14T04:35:00;11.0;;;7.9;;
49900;SDS011;35789;48.414;12.768;2022-09-14T04:40:00;11.0;;;7.9;;
49900;SDS011;35789;48.414;12.768;2022-09-14T04:45:00;11.0;;;7.9;;
49900;SDS011;35789;48.414;12.768;2022-09-14T04:50:00;11.0;;;7.9;;
49900;SDS011;35789;48.414;12.768;2022-09-14T04:55:00;11.0;;;7.9;;
49900;SDS011;35789;48.414;12.768;2022-09-14T05:00:00;12.0;;;8.3;;
49900;SDS011;35789;48.414;12.768;2022-09-14T05:05:00;12.0;;;8.3;;
49900;SDS011;35789;48.414;12.768;2022-09-14T05:10:00;12.0;;;8.3;;
49900;SDS011;35789;48.414;12.768;2022-09-14T05:15:00;12.0;;;8.3;;
49900;SDS011;35789;48.414;12.768;2022-09-14T05:20:00;12.0;;;8.3;;
49900;SDS011;35789;48.414;12.768;2022-09-14T05:25:00;15.2;;;10.2;;
49900;SDS011;35789;48.414;12.768;2022-09-14T05:30:00;15.2;;;10.2;;
49900;SDS011;35789;48.414;12.768;2022-09-14T05:35:00;15.2;;;10.2;;
49900;SDS011;35789;48.414;12.768;2022-09-14T05:40:00;15.2;;;10.2;;
49900;SDS011;35789;48.414;12.768;2022-09-14T05:45:00;15.2;;;10.2;;
49900;SDS011;35789;48.414;12.768;2022-09-14T05:50:00;15.2;;;10.2;;
49900;SDS011;35789;48.414;12.768;2022-09-14T05:55:00;15.6;;;10.7;;
49900;SDS011;35789;48.414;12.768;2022-09-14T06:00:00;15.6;;;10.7;;
49900;SDS011;35789;48.414;12.768;2022-09-14T06:05:00;15.6;;;10.7;;
49900;SDS011;35789;48.414;12.768;2022-09-14T06:10:00;15.6;;;10.7;;
49900;SDS011;35789;48.414;12.768;2022-09-14T06:15:00;15.6;;;10.7;;
49900;SDS011;35789;48.414;12.768;2022-09-14T06:20:00;15.6;;;10.7;;
49900;SDS011;35789;48.414;12.768;2022-09-14T06:25:00;13.3;;;10.0;;
49900;SDS011;35789;48.414;12.768;2022-09-14T06:30:00;13.3;;;10.0;;
49900;SDS011;35789;48.414;12.768;2022-09-14T06:35:00;13.3;;;10.0;;
49900;SDS011;35789;48.414;12.768;2022-09-14T06:40:01;13.3;;;10.0;;
49900;SDS011;35789;48.414;12.768;2022-09-14T06:45:00;13.3;;;10.0;;
49900;SDS011;35789;48.414;12.768;2022-09-14T06:50:00;13.3;;;10.0;;
49900;SDS011;35789;48.414;12.768;2022-09-14T06:55:00;12.0;;;9.3;;
49900;SDS011;35789;48.414;12.768;2022-09-14T07:00:00;12.0;;;9.3;;
49900;SDS011;35789;48.414;12.768;2022-09-14T07:05:00;12.0;;;9.3;;
49900;SDS011;35789;48.414;12.768;2022-09-14T07:10:00;12.0;;;9.3;;
49900;SDS011;35789;48.414;12.768;2022-09-14T07:15:00;12.0;;;9.3;;
49900;SDS011;35789;48.414;12.768;2022-09-14T07:20:00;12.0;;;9.3;;
49900;SDS011;35789;48.414;12.768;2022-09-14T07:25:00;18.8;;;9.6;;
49900;SDS011;35789;48.414;12.768;2022-09-14T07:30:00;18.8;;;9.6;;
49900;SDS011;35789;48.414;12.768;2022-09-14T07:35:00;18.8;;;9.6;;
49900;SDS011;35789;48.414;12.768;2022-09-14T07:40:00;18.8;;;9.6;;
49900;SDS011;35789;48.414;12.768;2022-09-14T07:45:00;18.8;;;9.6;;
49900;SDS011;35789;48.414;12.768;2022-09-14T07:50:00;18.8;;;9.6;;
49900;SDS011;35789;48.414;12.768;2022-09-14T07:55:00;10.3;;;5.2;;
49900;SDS011;35789;48.414;12.768;2022-09-14T08:00:00;10.3;;;5.2;;
49900;SDS011;35789;48.414;12.768;2022-09-14T08:05:00;10.3;;;5.2;;
49900;SDS011;35789;48.414;12.768;2022-09-14T08:10:00;10.3;;;5.2;;
49900;SDS011;35789;48.414;12.768;2022-09-14T08:15:00;10.3;;;5.2;;
49900;SDS011;35789;48.414;12.768;2022-09-14T08:20:00;10.3;;;5.2;;
49900;SDS011;35789;48.414;12.768;2022-09-14T08:25:00;8.3;;;4.2;;
49900;SDS011;35789;48.414;12.768;2022-09-14T08:30:00;8.3;;;4.2;;
49900;SDS011;35789;48.414;12.768;2022-09-14T08:35:00;8.3;;;4.2;;
49900;SDS011;35789;48.414;12.768;2022-09-14T08:40:00;8.3;;;4.2;;
49900;SDS011;35789;48.414;12.768;2022-09-14T08:45:02;8.3;;;4.2;;
49900;SDS011;35789;48.414;12.768;2022-09-14T08:50:03;8.3;;;4.2;;
49900;SDS011;35789;48.414;12.768;2022-09-14T08:55:05;7.6;;;3.1;;
49900;SDS011;35789;48.414;12.768;2022-09-14T09:00:07;7.6;;;3.1;;
49900;SDS011;35789;48.414;12.768;2022-09-14T09:05:11;7.6;;;3.1;;
49900;SDS011;35789;48.414;12.768;2022-09-14T09:10:03;7.6;;;3.1;;
49900;SDS011;35789;48.414;12.768;2022-09-14T09:15:03;7.6;;;3.1;;
49900;SDS011;35789;48.414;12.768;2022-09-14T09:20:07;7.6;;;3.1;;
49900;SDS011;35789;48.414;12.768;2022-09-14T09:25:03;7.7;;;2.4;;
49900;SDS011;35789;48.414;12.768;2022-09-14T09:30:00;7.7;;;2.4;;
49900;SDS011;35789;48.414;12.768;2022-09-14T09:35:00;7.7;;;2.4;;
49900;SDS011;35789;48.414;12.768;2022-09-14T09:40:01;7.7;;;2.4;;
49900;SDS011;35789;48.414;12.768;2022-09-14T09:45:01;7.7;;;2.4;;
49900;SDS011;35789;48.414;12.768;2022-09-14T09:50:03;7.7;;;2.4;;
49900;SDS011;35789;48.414;12.768;2022-09-14T09:55:01;5.9;;;2.4;;
49900;SDS011;35789;48.414;12.768;2022-09-14T10:00:17;5.9;;;2.4;;
49900;SDS011;35789;48.414;12.768;2022-09-14T10:05:02;5.9;;;2.4;;
49900;SDS011;35789;48.414;12.768;2022-09-14T10:10:02;5.9;;;2.4;;
49900;SDS011;35789;48.414;12.768;2022-09-14T10:15:07;5.9;;;2.4;;
49900;SDS011;35789;48.414;12.768;2022-09-14T10:20:01;5.9;;;2.4;;
49900;SDS011;35789;48.414;12.768;2022-09-14T10:25:03;7.6;;;2.6;;
49900;SDS011;35789;48.414;12.768;2022-09-14T10:30:02;7.6;;;2.6;;
49900;SDS011;35789;48.414;12.768;2022-09-14T10:35:00;7.6;;;2.6;;
49900;SDS011;35789;48.414;12.768;2022-09-14T10:40:10;7.6;;;2.6;;
49900;SDS011;35789;48.414;12.768;2022-09-14T10:45:13;7.6;;;2.6;;
49900;SDS011;35789;48.414;12.768;2022-09-14T10:50:10;7.6;;;2.6;;
49900;SDS011;35789;48.414;12.768;2022-09-14T10:55:12;6.4;;;2.1;;
49900;SDS011;35789;48.414;12.768;2022-09-14T11:00:04;6.4;;;2.1;;
49900;SDS011;35789;48.414;12.768;2022-09-14T11:05:06;6.4;;;2.1;;
49900;SDS011;35789;48.414;12.768;2022-09-14T11:10:07;6.4;;;2.1;;
49900;SDS011;35789;48.414;12.768;2022-09-14T11:15:09;6.4;;;2.1;;
49900;SDS011;35789;48.414;12.768;2022-09-14T11:20:07;6.4;;;2.1;;
49900;SDS011;35789;48.414;12.768;2022-09-14T11:25:03;6.1;;;1.7;;
49900;SDS011;35789;48.414;12.768;2022-09-14T11:30:03;6.1;;;1.7;;
49900;SDS011;35789;48.414;12.768;2022-09-14T11:35:02;6.1;;;1.7;;
49900;SDS011;35789;48.414;12.768;2022-09-14T11:40:07;6.1;;;1.7;;
49900;SDS011;35789;48.414;12.768;2022-09-14T11:45:02;6.1;;;1.7;;
49900;SDS011;35789;48.414;12.768;2022-09-14T11:50:05;6.1;;;1.7;;
49900;SDS011;35789;48.414;12.768;2022-09-14T11:55:01;6.2;;;1.9;;
49900;SDS011;35789;48.414;12.768;2022-09-14T12:00:01;6.2;;;1.9;;
49900;SDS011;35789;48.414;12.768;2022-09-14T12:10:17;6.2;;;1.9;;
49900;SDS011;35789;48.414;12.768;2022-09-14T12:15:03;6.2;;;1.9;;
49900;SDS011;35789;48.414;12.768;2022-09-14T12:25:03;6.1;;;1.9;;
49900;SDS011;35789;48.414;12.768;2022-09-14T12:30:00;6.1;;;1.9;;
49900;SDS011;35789;48.414;12.768;2022-09-14T12:40:11;6.1;;;1.9;;
49900;SDS011;35789;48.414;12.768;2022-09-14T12:50:04;6.1;;;1.9;;
49900;SDS011;35789;48.414;12.768;2022-09-14T12:55:15;5.8;;;2.1;;
49900;SDS011;35789;48.414;12.768;2022-09-14T13:00:09;5.8;;;2.1;;
49900;SDS011;35789;48.414;12.768;2022-09-14T13:05:00;5.8;;;2.1;;
49900;SDS011;35789;48.414;12.768;2022-09-14T13:10:01;5.8;;;2.1;;
49900;SDS011;35789;48.414;12.768;2022-09-14T13:15:02;5.8;;;2.1;;
49900;SDS011;35789;48.414;12.768;2022-09-14T13:20:03;5.8;;;2.1;;
49900;SDS011;35789;48.414;12.768;2022-09-14T13:25:00;5.4;;;2.0;;
49900;SDS011;35789;48.414;12.768;2022-09-14T13:30:04;5.4;;;2.0;;
49900;SDS011;35789;48.414;12.768;2022-09-14T13:35:02;5.4;;;2.0;;
49900;SDS011;35789;48.414;12.768;2022-09-14T13:40:00;5.4;;;2.0;;
49900;SDS011;35789;48.414;12.768;2022-09-14T13:45:00;5.4;;;2.0;;
49900;SDS011;35789;48.414;12.768;2022-09-14T13:50:00;5.4;;;2.0;;
49900;SDS011;35789;48.414;12.768;2022-09-14T13:55:15;6.0;;;2.2;;
49900;SDS011;35789;48.414;12.768;2022-09-14T14:00:15;6.0;;;2.2;;
49900;SDS011;35789;48.414;12.768;2022-09-14T14:05:00;6.0;;;2.2;;
49900;SDS011;35789;48.414;12.768;2022-09-14T14:10:01;6.0;;;2.2;;
49900;SDS011;35789;48.414;12.768;2022-09-14T14:15:02;6.0;;;2.2;;
49900;SDS011;35789;48.414;12.768;2022-09-14T14:25:17;6.9;;;2.0;;
49900;SDS011;35789;48.414;12.768;2022-09-14T14:30:12;6.9;;;2.0;;
49900;SDS011;35789;48.414;12.768;2022-09-14T14:35:03;6.9;;;2.0;;
49900;SDS011;35789;48.414;12.768;2022-09-14T14:40:00;6.9;;;2.0;;
49900;SDS011;35789;48.414;12.768;2022-09-14T14:45:00;6.9;;;2.0;;
49900;SDS011;35789;48.414;12.768;2022-09-14T14:50:00;6.9;;;2.0;;
49900;SDS011;35789;48.414;12.768;2022-09-14T14:55:00;6.5;;;2.3;;
49900;SDS011;35789;48.414;12.768;2022-09-14T15:00:00;6.5;;;2.3;;
49900;SDS011;35789;48.414;12.768;2022-09-14T15:05:00;6.5;;;2.3;;
49900;SDS011;35789;48.414;12.768;2022-09-14T15:10:00;6.5;;;2.3;;
49900;SDS011;35789;48.414;12.768;2022-09-14T15:15:00;6.5;;;2.3;;
49900;SDS011;35789;48.414;12.768;2022-09-14T15:20:00;6.5;;;2.3;;
49900;SDS011;35789;48.414;12.768;2022-09-14T15:25:00;8.3;;;2.5;;
49900;SDS011;35789;48.414;12.768;2022-09-14T15:30:00;8.3;;;2.5;;
49900;SDS011;35789;48.414;12.768;2022-09-14T15:35:00;8.3;;;2.5;;
49900;SDS011;35789;48.414;12.768;2022-09-14T15:40:00;8.3;;;2.5;;
49900;SDS011;35789;48.414;12.768;2022-09-14T15:45:00;8.3;;;2.5;;
49900;SDS011;35789;48.414;12.768;2022-09-14T15:50:00;8.3;;;2.5;;
49900;SDS011;35789;48.414;12.768;2022-09-14T15:55:00;6.8;;;2.8;;
49900;SDS011;35789;48.414;12.768;2022-09-14T16:00:00;6.8;;;2.8;;
49900;SDS011;35789;48.414;12.768;2022-09-14T16:05:00;6.8;;;2.8;;
49900;SDS011;35789;48.414;12.768;2022-09-14T16:10:00;6.8;;;2.8;;
49900;SDS011;35789;48.414;12.768;2022-09-14T16:15:00;6.8;;;2.8;;
49900;SDS011;35789;48.414;12.768;2022-09-14T16:20:00;6.8;;;2.8;;
49900;SDS011;35789;48.414;12.768;2022-09-14T16:25:00;6.8;;;1.7;;
49900;SDS011;35789;48.414;12.768;2022-09-14T16:30:00;6.8;;;1.7;;
49900;SDS011;35789;48.414;12.768;2022-09-14T16:35:00;6.8;;;1.7;;
49900;SDS011;35789;48.414;12.768;2022-09-14T16:40:00;6.8;;;1.7;;
49900;SDS011;35789;48.414;12.768;2022-09-14T16:45:00;6.8;;;1.7;;
49900;SDS011;35789;48.414;12.768;2022-09-14T16:50:00;6.8;;;1.7;;
49900;SDS011;35789;48.414;12.768;2022-09-14T16:55:00;7.6;;;2.1;;
49900;SDS011;35789;48.414;12.768;2022-09-14T17:00:00;7.6;;;2.1;;
49900;SDS011;35789;48.414;12.768;2022-09-14T17:05:00;7.6;;;2.1;;
49900;SDS011;35789;48.414;12.768;2022-09-14T17:10:00;7.6;;;2.1;;
49900;SDS011;35789;48.414;12.768;2022-09-14T17:15:00;7.6;;;2.1;;
49900;SDS011;35789;48.414;12.768;2022-09-14T17:20:00;7.6;;;2.1;;
49900;SDS011;35789;48.414;12.768;2022-09-14T17:25:00;6.0;;;1.6;;
49900;SDS011;35789;48.414;12.768;2022-09-14T17:30:00;6.0;;;1.6;;
49900;SDS011;35789;48.414;12.768;2022-09-14T17:35:00;6.0;;;1.6;;
49900;SDS011;35789;48.414;12.768;2022-09-14T17:40:00;6.0;;;1.6;;
49900;SDS011;35789;48.414;12.768;2022-09-14T17:45:00;6.0;;;1.6;;
49900;SDS011;35789;48.414;12.768;2022-09-14T17:50:00;6.0;;;1.6;;
49900;SDS011;35789;48.414;12.768;2022-09-14T17:55:00;6.7;;;2.5;;
49900;SDS011;35789;48.414;12.768;2022-09-14T18:00:00;6.7;;;2.5;;
49900;SDS011;35789;48.414;12.768;2022-09-14T18:05:00;6.7;;;2.5;;
49900;SDS011;35789;48.414;12.768;2022-09-14T18:10:00;6.7;;;2.5;;
49900;SDS011;35789;48.414;12.768;2022-09-14T18:15:00;6.7;;;2.5;;
49900;SDS011;35789;48.414;12.768;2022-09-14T18:20:00;6.7;;;2.5;;
49900;SDS011;35789;48.414;12.768;2022-09-14T18:25:00;8.5;;;2.4;;
49900;SDS011;35789;48.414;12.768;2022-09-14T18:30:00;8.5;;;2.4;;
49900;SDS011;35789;48.414;12.768;2022-09-14T18:35:00;8.5;;;2.4;;
49900;SDS011;35789;48.414;12.768;2022-09-14T18:40:00;8.5;;;2.4;;
49900;SDS011;35789;48.414;12.768;2022-09-14T18:45:00;8.5;;;2.4;;
49900;SDS011;35789;48.414;12.768;2022-09-14T18:50:00;8.5;;;2.4;;
49900;SDS011;35789;48.414;12.768;2022-09-14T18:55:00;8.8;;;3.1;;
49900;SDS011;35789;48.414;12.768;2022-09-14T19:00:00;8.8;;;3.1;;
49900;SDS011;35789;48.414;12.768;2022-09-14T19:05:00;8.8;;;3.1;;
49900;SDS011;35789;48.414;12.768;2022-09-14T19:10:00;8.8;;;3.1;;
49900;SDS011;35789;48.414;12.768;2022-09-14T19:15:00;8.8;;;3.1;;
49900;SDS011;35789;48.414;12.768;2022-09-14T19:20:00;8.8;;;3.1;;
49900;SDS011;35789;48.414;12.768;2022-09-14T19:25:00;8.6;;;2.6;;
49900;SDS011;35789;48.414;12.768;2022-09-14T19:30:00;8.6;;;2.6;;
49900;SDS011;35789;48.414;12.768;2022-09-14T19:35:00;8.6;;;2.6;;
49900;SDS011;35789;48.414;12.768;2022-09-14T19:40:00;8.6;;;2.6;;
49900;SDS011;35789;48.414;12.768;2022-09-14T19:45:00;8.6;;;2.6;;
49900;SDS011;35789;48.414;12.768;2022-09-14T19:50:00;8.6;;;2.6;;
49900;SDS011;35789;48.414;12.768;2022-09-14T19:55:00;7.7;;;2.9;;
49900;SDS011;35789;48.414;12.768;2022-09-14T20:00:00;7.7;;;2.9;;
49900;SDS011;35789;48.414;12.768;2022-09-14T20:05:00;7.7;;;2.9;;
49900;SDS011;35789;48.414;12.768;2022-09-14T20:10:00;7.7;;;2.9;;
49900;SDS011;35789;48.414;12.768;2022-09-14T20:15:00;7.7;;;2.9;;
49900;SDS011;35789;48.414;12.768;2022-09-14T20:20:00;7.7;;;2.9;;
49900;SDS011;35789;48.414;12.768;2022-09-14T20:25:00;10.3;;;4.3;;
49900;SDS011;35789;48.414;12.768;2022-09-14T20:30:00;10.3;;;4.3;;
49900;SDS011;35789;48.414;12.768;2022-09-14T20:35:00;10.3;;;4.3;;
49900;SDS011;35789;48.414;12.768;2022-09-14T20:40:00;10.3;;;4.3;;
49900;SDS011;35789;48.414;12.768;2022-09-14T20:45:00;10.3;;;4.3;;
49900;SDS011;35789;48.414;12.768;2022-09-14T20:50:00;10.3;;;4.3;;
49900;SDS011;35789;48.414;12.768;2022-09-14T20:55:00;7.7;;;3.8;;
49900;SDS011;35789;48.414;12.768;2022-09-14T21:00:00;7.7;;;3.8;;
49900;SDS011;35789;48.414;12.768;2022-09-14T21:05:00;7.7;;;3.8;;
49900;SDS011;35789;48.414;12.768;2022-09-14T21:10:00;7.7;;;3.8;;
49900;SDS011;35789;48.414;12.768;2022-09-14T21:15:00;7.7;;;3.8;;
49900;SDS011;35789;48.414;12.768;2022-09-14T21:20:00;7.7;;;3.8;;
49900;SDS011;35789;48.414;12.768;2022-09-14T21:25:00;7.5;;;3.9;;
49900;SDS011;35789;48.414;12.768;2022-09-14T21:30:01;7.5;;;3.9;;
49900;SDS011;35789;48.414;12.768;2022-09-14T21:35:00;7.5;;;3.9;;
49900;SDS011;35789;48.414;12.768;2022-09-14T21:40:00;7.5;;;3.9;;
49900;SDS011;35789;48.414;12.768;2022-09-14T21:45:00;7.5;;;3.9;;
49900;SDS011;35789;48.414;12.768;2022-09-14T21:50:00;7.5;;;3.9;;
49900;SDS011;35789;48.414;12.768;2022-09-14T21:55:00;10.3;;;4.6;;
49900;SDS011;35789;48.414;12.768;2022-09-14T22:00:00;10.3;;;4.6;;
49900;SDS011;35789;48.414;12.768;2022-09-14T22:05:00;10.3;;;4.6;;
49900;SDS011;35789;48.414;12.768;2022-09-14T22:10:00;10.3;;;4.6;;
49900;SDS011;35789;48.414;12.768;2022-09-14T22:15:00;10.3;;;4.6;;
49900;SDS011;35789;48.414;12.768;2022-09-14T22:20:00;10.3;;;4.6;;
49900;SDS011;35789;48.414;12.768;2022-09-14T22:25:00;6.5;;;3.6;;
49900;SDS011;35789;48.414;12.768;2022-09-14T22:30:00;6.5;;;3.6;;
49900;SDS011;35789;48.414;12.768;2022-09-14T22:35:00;6.5;;;3.6;;
49900;SDS011;35789;48.414;12.768;2022-09-14T22:40:00;6.5;;;3.6;;
49900;SDS011;35789;48.414;12.768;2022-09-14T22:45:00;6.5;;;3.6;;
49900;SDS011;35789;48.414;12.768;2022-09-14T22:50:00;6.5;;;3.6;;
49900;SDS011;35789;48.414;12.768;2022-09-14T22:55:00;9.3;;;4.2;;
49900;SDS011;35789;48.414;12.768;2022-09-14T23:00:00;9.3;;;4.2;;
49900;SDS011;35789;48.414;12.768;2022-09-14T23:05:00;9.3;;;4.2;;
49900;SDS011;35789;48.414;12.768;2022-09-14T23:10:00;9.3;;;4.2;;
49900;SDS011;35789;48.414;12.768;2022-09-14T23:15:00;9.3;;;4.2;;
49900;SDS011;35789;48.414;12.768;2022-09-14T23:20:00;9.3;;;4.2;;
49900;SDS011;35789;48.414;12.768;2022-09-14T23:25:00;9.1;;;4.5;;
49900;SDS011;35789;48.414;12.768;2022-09-14T23:30:00;9.1;;;4.5;;
49900;SDS011;35789;48.414;12.768;2022-09-14T23:35:00;9.1;;;4.5;;
49900;SDS011;35789;48.414;12.768;2022-09-14T23:40:00;9.1;;;4.5;;
49900;SDS011;35789;48.414;12.768;2022-09-14T23:45:00;9.1;;;4.5;;
49900;SDS011;35789;48.414;12.768;2022-09-14T23:50:00;9.1;;;4.5;;
49900;SDS011;35789;48.414;12.768;2022-09-14T23:55:00;6.7;;;2.8;;
